Time;durP1;ratioP1;P1;durP2;ratioP2;P2;SDS_P1;SDS_P2;PMS_P1;PMS_P2;Temp;Humidity;BMP_temperature;BMP_pressure;BME280_temperature;BME280_humidity;BME280_pressure;Samples;Min_cycle;Max_cycle;Signal;HPM_P1;HPM_P2
2023/05/05 00:02:19;;;;;;;20.63;12.93;;;17.90;89.80;;;;;;5013348;28;20068;-70
2023/05/05 00:04:45;;;;;;;18.83;13.20;;;17.90;89.90;;;;;;5013064;28;20341;-71
2023/05/05 00:07:11;;;;;;;14.48;11.95;;;17.90;90.10;;;;;;5012888;28;20034;-72
2023/05/05 00:09:37;;;;;;;14.65;10.77;;;17.80;90.00;;;;;;5011644;28;20037;-71
2023/05/05 00:12:02;;;;;;;15.93;11.10;;;17.80;90.10;;;;;;5012946;28;20113;-71
2023/05/05 00:14:28;;;;;;;18.40;11.05;;;17.70;90.10;;;;;;5012957;28;20022;-70
2023/05/05 00:16:54;;;;;;;18.52;11.07;;;17.70;90.20;;;;;;5013273;28;20121;-71
2023/05/05 00:19:19;;;;;;;14.68;10.82;;;17.70;90.40;;;;;;5012817;28;20109;-72
2023/05/05 00:21:45;;;;;;;13.48;11.23;;;17.60;90.40;;;;;;5012634;28;20034;-70
2023/05/05 00:24:11;;;;;;;14.80;10.38;;;17.60;90.50;;;;;;5012740;28;20543;-69
2023/05/05 00:26:36;;;;;;;15.20;10.77;;;17.50;90.60;;;;;;5012770;28;20049;-70
2023/05/05 00:29:02;;;;;;;15.52;11.13;;;17.50;90.70;;;;;;5012407;28;20045;-69
2023/05/05 00:31:28;;;;;;;13.40;10.90;;;17.50;90.90;;;;;;5012526;28;20157;-71
2023/05/05 00:33:53;;;;;;;13.93;10.57;;;17.50;90.90;;;;;;5012523;28;20104;-71
2023/05/05 00:36:19;;;;;;;16.17;11.77;;;17.50;91.00;;;;;;5013040;28;20399;-72
2023/05/05 00:38:45;;;;;;;15.45;11.68;;;17.50;91.10;;;;;;5027676;28;20058;-71
2023/05/05 00:41:10;;;;;;;14.10;11.15;;;17.50;91.20;;;;;;5012787;28;20132;-70
2023/05/05 00:43:36;;;;;;;14.10;11.35;;;17.50;91.20;;;;;;5012910;28;20038;-71
2023/05/05 00:46:34;;;;;;;15.80;11.68;;;17.50;91.20;;;;;;5012483;28;20030;-71
2023/05/05 00:49:00;;;;;;;18.02;11.27;;;17.50;91.20;;;;;;4979095;28;20049;-70
2023/05/05 00:51:27;;;;;;;16.48;10.82;;;17.50;91.40;;;;;;5012454;28;20052;-70
2023/05/05 00:53:53;;;;;;;16.20;11.32;;;17.50;91.40;;;;;;5012200;28;20030;-70
2023/05/05 00:56:20;;;;;;;14.55;11.73;;;17.40;91.50;;;;;;5012024;28;20541;-71
2023/05/05 00:58:47;;;;;;;14.25;11.63;;;17.40;91.60;;;;;;4994357;28;20043;-70
2023/05/05 01:01:14;;;;;;;15.80;11.30;;;17.40;91.60;;;;;;5012180;28;20061;-72
2023/05/05 01:03:40;;;;;;;18.70;12.18;;;17.40;91.80;;;;;;5012159;28;20041;-70
2023/05/05 01:06:24;;;;;;;14.55;10.88;;;17.50;91.80;;;;;;5012257;28;20033;-70
2023/05/05 01:08:53;;;;;;;13.90;10.70;;;17.50;91.80;;;;;;5011889;28;20089;-69
2023/05/05 01:11:31;;;;;;;14.25;11.05;;;17.50;91.80;;;;;;5011953;28;20069;-70
2023/05/05 01:14:14;;;;;;;17.20;11.25;;;17.50;91.90;;;;;;5012124;28;20038;-70
2023/05/05 01:17:03;;;;;;;16.98;12.27;;;17.40;91.70;;;;;;5012083;28;20543;-70
2023/05/05 01:19:44;;;;;;;14.25;11.20;;;17.30;91.80;;;;;;5011849;28;20034;-72
2023/05/05 01:22:13;;;;;;;15.57;11.35;;;17.30;91.70;;;;;;5011716;28;20057;-69
2023/05/05 01:25:01;;;;;;;14.40;11.20;;;17.20;91.40;;;;;;5012039;28;20030;-70
2023/05/05 01:27:38;;;;;;;17.00;11.27;;;17.20;91.50;;;;;;4994314;28;20038;-70
2023/05/05 01:30:41;;;;;;;13.30;11.30;;;17.10;91.30;;;;;;5012483;28;20046;-71
2023/05/05 01:33:11;;;;;;;16.13;10.77;;;17.10;91.20;;;;;;5016004;28;20097;-70
2023/05/05 01:35:42;;;;;;;14.27;10.25;;;17.10;90.80;;;;;;5015686;28;20052;-71
2023/05/05 01:38:15;;;;;;;16.65;11.27;;;17.10;90.50;;;;;;5015795;28;20033;-71
2023/05/05 01:40:51;;;;;;;18.20;10.50;;;17.10;90.30;;;;;;5015681;28;20038;-70
2023/05/05 01:43:22;;;;;;;15.85;10.60;;;17.10;90.10;;;;;;5015560;28;20038;-69
2023/05/05 01:45:48;;;;;;;14.63;11.05;;;17.00;90.00;;;;;;5015716;28;20104;-71
2023/05/05 01:48:17;;;;;;;15.52;11.90;;;17.00;89.80;;;;;;5015671;28;20034;-71
2023/05/05 01:50:45;;;;;;;13.35;10.57;;;17.00;89.40;;;;;;5015306;28;20141;-72
2023/05/05 01:53:12;;;;;;;14.70;10.65;;;17.00;89.10;;;;;;5015805;28;20125;-69
2023/05/05 01:55:38;;;;;;;14.80;9.15;;;16.90;88.80;;;;;;4997987;28;20049;-70
2023/05/05 01:58:06;;;;;;;14.70;9.63;;;16.90;88.40;;;;;;5015675;28;20041;-71
2023/05/05 02:00:33;;;;;;;12.65;9.00;;;16.90;88.00;;;;;;5016777;28;20036;-71
2023/05/05 02:03:03;;;;;;;12.65;9.57;;;16.90;87.60;;;;;;5015499;28;20062;-69
2023/05/05 02:05:30;;;;;;;11.63;9.32;;;16.90;87.30;;;;;;5015314;28;20173;-71
2023/05/05 02:07:59;;;;;;;12.57;8.93;;;16.80;86.90;;;;;;5015197;28;20042;-70
2023/05/05 02:10:26;;;;;;;11.43;9.02;;;16.70;86.70;;;;;;5015481;28;20113;-71
2023/05/05 02:12:52;;;;;;;10.43;8.00;;;16.70;86.50;;;;;;5015233;28;20081;-69
2023/05/05 02:15:21;;;;;;;14.90;8.45;;;16.70;86.20;;;;;;5014868;28;20519;-71
2023/05/05 02:17:50;;;;;;;11.23;8.07;;;16.60;86.20;;;;;;5015039;28;20033;-70
2023/05/05 02:20:17;;;;;;;13.40;8.13;;;16.50;86.00;;;;;;5030196;28;20400;-71
2023/05/05 02:22:43;;;;;;;10.57;7.80;;;16.50;85.90;;;;;;5014928;28;20051;-70
2023/05/05 02:25:09;;;;;;;9.48;7.88;;;16.50;86.00;;;;;;4997749;28;20026;-70
2023/05/05 02:27:39;;;;;;;11.02;8.65;;;16.50;86.00;;;;;;5030497;28;20121;-70
2023/05/05 02:30:08;;;;;;;10.48;7.65;;;16.40;85.80;;;;;;5014636;28;20101;-70
2023/05/05 02:32:39;;;;;;;12.20;7.70;;;16.40;85.90;;;;;;5014685;28;20093;-70
2023/05/05 02:35:12;;;;;;;10.13;7.30;;;16.40;85.70;;;;;;5015060;28;20037;-70
2023/05/05 02:37:42;;;;;;;12.05;7.63;;;16.40;85.60;;;;;;5014819;28;20507;-70
2023/05/05 02:40:10;;;;;;;11.75;7.40;;;16.30;85.50;;;;;;5014484;28;20034;-71
2023/05/05 02:42:39;;;;;;;10.07;7.72;;;16.30;85.50;;;;;;5013685;28;20042;-71
2023/05/05 02:45:17;;;;;;;10.38;6.95;;;16.30;85.40;;;;;;5014804;28;20034;-71
2023/05/05 02:47:43;;;;;;;11.27;7.32;;;16.30;85.40;;;;;;5015120;28;20060;-69
2023/05/05 02:50:09;;;;;;;12.65;7.20;;;16.30;85.70;;;;;;5015092;28;20113;-72
2023/05/05 02:52:36;;;;;;;9.63;7.30;;;16.30;85.70;;;;;;5015212;28;20045;-70
2023/05/05 02:55:03;;;;;;;10.35;7.15;;;16.30;85.50;;;;;;5015346;28;20503;-71
2023/05/05 02:57:43;;;;;;;10.38;8.00;;;16.30;85.20;;;;;;5013509;28;20053;-70
2023/05/05 03:00:40;;;;;;;9.57;7.63;;;16.30;85.20;;;;;;4996817;28;20088;-70
2023/05/05 03:03:42;;;;;;;9.63;7.00;;;16.20;85.20;;;;;;5014671;28;20495;-71
2023/05/05 03:06:15;;;;;;;12.00;7.80;;;16.10;85.40;;;;;;5014856;28;20034;-71
2023/05/05 03:08:51;;;;;;;11.15;7.90;;;16.10;85.10;;;;;;5014252;28;20041;-70
2023/05/05 03:11:30;;;;;;;9.65;7.53;;;16.10;85.20;;;;;;5030659;28;20521;-70
2023/05/05 03:14:07;;;;;;;12.77;8.32;;;16.00;85.20;;;;;;5014328;28;20045;-71
2023/05/05 03:16:35;;;;;;;11.88;7.22;;;16.00;85.30;;;;;;5014246;28;20096;-72
2023/05/05 03:19:03;;;;;;;12.48;7.35;;;16.00;85.30;;;;;;5013938;28;20097;-70
2023/05/05 03:21:30;;;;;;;10.23;7.80;;;16.00;85.30;;;;;;5014167;28;20062;-70
2023/05/05 03:23:57;;;;;;;11.35;7.75;;;16.10;85.30;;;;;;5014133;28;20038;-70
2023/05/05 03:26:23;;;;;;;14.30;7.30;;;16.10;85.10;;;;;;5013994;28;20041;-70
2023/05/05 21:28:57;;;;;;;11.07;6.28;;;19.90;75.20;;;;;;5006671;28;20072;-71
2023/05/05 21:31:23;;;;;;;14.48;6.88;;;19.70;74.80;;;;;;5010860;28;20054;-83
2023/05/05 21:33:49;;;;;;;11.20;6.93;;;19.80;75.10;;;;;;5014354;28;20591;-83
2023/05/05 21:36:16;;;;;;;13.57;7.30;;;19.70;75.40;;;;;;5017608;28;20395;-81
2023/05/05 21:38:42;;;;;;;16.45;7.10;;;19.70;75.80;;;;;;5021499;28;20034;-82
2023/05/05 21:41:07;;;;;;;12.10;6.85;;;19.70;75.80;;;;;;5013355;28;20402;-82
2023/05/05 21:43:33;;;;;;;11.20;6.63;;;19.70;76.70;;;;;;5013814;28;20069;-82
2023/05/05 21:46:03;;;;;;;9.63;6.63;;;19.70;76.30;;;;;;5012988;28;20042;-82
2023/05/05 21:48:32;;;;;;;10.00;6.68;;;19.70;76.40;;;;;;5015702;28;20123;-80
2023/05/05 21:50:57;;;;;;;12.23;7.40;;;19.60;76.40;;;;;;5019518;28;20037;-82
2023/05/05 21:53:23;;;;;;;11.43;6.85;;;19.60;76.70;;;;;;5025206;28;20050;-82
2023/05/05 21:55:49;;;;;;;10.25;6.47;;;19.50;77.40;;;;;;5022899;28;20068;-82
2023/05/05 21:58:15;;;;;;;9.73;6.53;;;19.40;77.50;;;;;;5027724;28;20077;-80
2023/05/05 22:00:41;;;;;;;12.43;7.28;;;19.40;77.70;;;;;;5030507;28;20029;-81
2023/05/05 22:03:07;;;;;;;13.50;7.53;;;19.40;78.10;;;;;;5021806;28;20049;-84
2023/05/05 22:05:33;;;;;;;12.65;7.05;;;19.40;78.10;;;;;;4997249;28;20380;-80
2023/05/05 22:07:59;;;;;;;12.13;7.10;;;19.30;78.40;;;;;;5015731;28;20041;-77
2023/05/05 22:10:26;;;;;;;11.88;7.20;;;19.30;78.70;;;;;;5015761;28;20030;-80
2023/05/05 22:12:52;;;;;;;10.70;7.20;;;19.30;79.20;;;;;;5015592;28;20522;-81
2023/05/05 22:15:18;;;;;;;12.93;7.97;;;19.20;79.30;;;;;;5015362;28;20030;-80
2023/05/05 22:17:45;;;;;;;11.82;7.38;;;19.20;79.70;;;;;;5015903;28;20459;-81
2023/05/05 22:20:11;;;;;;;10.52;7.20;;;19.20;80.10;;;;;;5015968;28;20411;-81
2023/05/05 22:22:36;;;;;;;11.70;7.80;;;19.20;80.20;;;;;;5015573;28;20044;-80
2023/05/05 22:25:02;;;;;;;13.73;8.18;;;19.20;80.60;;;;;;5015751;28;20381;-80
2023/05/05 22:27:28;;;;;;;15.02;7.05;;;19.20;80.70;;;;;;5015479;28;20157;-82
2023/05/05 22:29:54;;;;;;;13.95;7.32;;;19.10;80.80;;;;;;5015723;28;20410;-81
2023/05/05 22:32:19;;;;;;;12.40;7.65;;;19.10;80.90;;;;;;5015392;28;20048;-80
2023/05/05 22:34:45;;;;;;;13.43;7.93;;;19.20;81.30;;;;;;5015361;28;20076;-80
2023/05/05 22:37:10;;;;;;;11.75;8.30;;;19.10;81.50;;;;;;5015105;28;20121;-81
2023/05/05 22:39:36;;;;;;;13.27;7.28;;;19.10;81.80;;;;;;5015462;28;20030;-81
2023/05/05 22:42:02;;;;;;;11.43;8.52;;;19.10;81.90;;;;;;5015334;28;20034;-82
2023/05/05 22:44:28;;;;;;;12.95;8.85;;;19.10;82.20;;;;;;5015645;28;20030;-80
2023/05/05 22:46:54;;;;;;;15.45;8.05;;;19.10;82.50;;;;;;5015234;28;20456;-80
2023/05/05 22:49:20;;;;;;;13.80;8.68;;;19.10;82.60;;;;;;5015107;28;20037;-81
2023/05/05 22:51:46;;;;;;;17.67;9.32;;;19.10;82.80;;;;;;5014958;28;20041;-80
2023/05/05 22:54:12;;;;;;;17.00;9.93;;;19.00;82.90;;;;;;5014898;28;20050;-80
2023/05/05 22:56:38;;;;;;;14.82;9.02;;;19.00;83.10;;;;;;4997232;28;20032;-80
2023/05/05 22:59:04;;;;;;;13.82;9.20;;;19.00;83.40;;;;;;5015100;28;20033;-81
2023/05/05 23:01:31;;;;;;;13.52;9.23;;;18.90;83.40;;;;;;5015442;28;20026;-81
2023/05/05 23:03:57;;;;;;;11.60;8.80;;;18.90;83.50;;;;;;5014676;28;20030;-80
2023/05/05 23:06:23;;;;;;;12.18;8.43;;;18.90;83.60;;;;;;4996494;28;20089;-80
2023/05/05 23:08:48;;;;;;;14.27;8.80;;;18.90;83.90;;;;;;4996956;28;20068;-79
2023/05/05 23:11:14;;;;;;;11.60;8.98;;;18.90;84.00;;;;;;5014508;28;20048;-79
2023/05/05 23:13:40;;;;;;;11.98;9.05;;;18.80;84.20;;;;;;5014513;28;20125;-79
2023/05/05 23:16:06;;;;;;;12.13;8.18;;;18.80;84.40;;;;;;5015009;28;20065;-81
2023/05/05 23:18:31;;;;;;;12.18;9.40;;;18.70;84.50;;;;;;5014232;28;20030;-82
2023/05/05 23:20:57;;;;;;;13.55;9.45;;;18.70;84.70;;;;;;5014061;28;20058;-80
2023/05/05 23:23:23;;;;;;;15.95;10.65;;;18.70;84.90;;;;;;5014364;28;20116;-80
2023/05/05 23:25:50;;;;;;;15.95;9.95;;;18.70;85.10;;;;;;5013885;28;20033;-80
2023/05/05 23:28:15;;;;;;;14.25;9.63;;;18.70;85.30;;;;;;4996257;28;20042;-81
2023/05/05 23:30:41;;;;;;;15.05;8.98;;;18.70;85.40;;;;;;4995754;28;20411;-81
2023/05/05 23:33:07;;;;;;;15.32;9.77;;;18.70;85.60;;;;;;5013189;28;20053;-81
2023/05/05 23:35:33;;;;;;;13.77;9.45;;;18.70;85.50;;;;;;5012967;28;20045;-81
2023/05/05 23:37:58;;;;;;;17.00;10.00;;;18.70;85.70;;;;;;4995494;28;20049;-80
2023/05/05 23:40:24;;;;;;;13.57;10.18;;;18.70;85.70;;;;;;5013260;28;20050;-79
2023/05/05 23:42:50;;;;;;;13.57;10.68;;;18.70;86.00;;;;;;5012990;28;20487;-82
2023/05/05 23:45:15;;;;;;;13.43;11.52;;;18.60;86.20;;;;;;5012647;28;20038;-81
2023/05/05 23:47:41;;;;;;;15.93;10.75;;;18.60;86.40;;;;;;5012519;28;20038;-81
2023/05/05 23:50:07;;;;;;;17.45;12.48;;;18.60;86.80;;;;;;5012718;28;20399;-80
2023/05/05 23:52:33;;;;;;;15.20;11.50;;;18.60;87.10;;;;;;5012642;28;20056;-80
2023/05/05 23:54:59;;;;;;;16.15;11.23;;;18.50;87.00;;;;;;5012609;28;20109;-80
2023/05/05 23:57:25;;;;;;;15.75;10.60;;;18.50;87.30;;;;;;5012634;28;20042;-82
2023/05/05 23:59:50;;;;;;;15.95;10.57;;;18.50;87.30;;;;;;5012954;28;20030;-80
